Arcadia, Utah
Current Conditions -  °F | °C
As of 11:53 PM on Sunday 21 Dec 2014 (Local Time) from KPUC Reporting Station
Overcast Overcast  
Wind Chill: 35°   Ceiling: 6500
Heat Index: 42°   Visibility: 10mi
Dew Point: 33°   Wind: 15mph
Humidity: 70%   Direction: 290°WNW
Pressure: 29.94"   Gusts: NA
Location:  39.9707°N, 110.477°W
Report Text: KPUC 220653Z AUTO 29013KT 10SM FEW047 OVC065 06/01 A2994 RMK AO2 SLP153 T00560006 400561011
Loading
Personal Weather Stations






























Interactive Weather Map New forecast layout! Learn more

10-Day Weather Forecast

Advertisements
Track Severe Weather on mobile